createdAt,value
2022-12-03T00:01:14.257Z,3.51
2022-12-03T00:03:19.349Z,3.55
2022-12-03T00:05:23.986Z,3.57
2022-12-03T00:07:28.826Z,3.57
2022-12-03T00:09:33.725Z,3.60
2022-12-03T00:11:38.474Z,3.59
2022-12-03T00:13:45.984Z,3.62
2022-12-03T00:15:50.876Z,3.60
2022-12-03T00:17:55.858Z,3.55
2022-12-03T00:20:00.613Z,3.52
2022-12-03T00:22:05.538Z,3.47
2022-12-03T00:24:11.441Z,3.45
2022-12-03T00:26:16.199Z,3.42
2022-12-03T00:28:20.994Z,3.37
2022-12-03T00:30:28.438Z,3.44
2022-12-03T00:32:33.200Z,3.46
2022-12-03T00:34:38.032Z,3.48
2022-12-03T00:36:42.800Z,3.47
2022-12-03T00:38:47.624Z,3.47
2022-12-03T00:40:52.536Z,3.51
2022-12-03T00:42:57.425Z,3.50
2022-12-03T00:45:02.250Z,3.49
2022-12-03T00:47:09.922Z,3.53
2022-12-03T00:49:14.762Z,3.53
2022-12-03T00:51:19.585Z,3.51
2022-12-03T00:53:24.342Z,3.46
2022-12-03T00:55:29.175Z,3.40
2022-12-03T00:57:33.945Z,3.39
2022-12-03T00:59:40.272Z,3.43
2022-12-03T01:01:45.106Z,3.41
2022-12-03T01:03:52.536Z,3.39
2022-12-03T01:05:58.774Z,3.39
2022-12-03T01:08:03.736Z,3.44
2022-12-03T01:10:10.362Z,3.50
2022-12-03T01:12:15.297Z,3.51
2022-12-03T01:14:22.197Z,3.55
2022-12-03T01:16:27.072Z,3.55
2022-12-03T01:18:31.957Z,3.47
2022-12-03T01:20:39.377Z,3.47
2022-12-03T01:22:44.339Z,3.47
2022-12-03T01:24:49.364Z,3.50
2022-12-03T01:26:55.882Z,3.52
2022-12-03T01:29:00.704Z,3.54
2022-12-03T01:31:17.989Z,3.55
2022-12-03T01:33:22.836Z,3.57
2022-12-03T01:35:27.791Z,3.54
2022-12-03T01:37:35.211Z,3.46
2022-12-03T01:39:39.980Z,3.43
2022-12-03T01:41:45.106Z,3.42
2022-12-03T01:43:50.866Z,3.40
2022-12-03T01:45:55.720Z,3.38
2022-12-03T01:48:00.832Z,3.42
2022-12-03T01:50:20.323Z,3.45
2022-12-03T01:52:30.029Z,3.43
2022-12-03T01:54:41.173Z,3.38
2022-12-03T01:56:46.228Z,3.39
2022-12-03T01:58:51.661Z,3.38
2022-12-03T02:00:56.589Z,3.42
2022-12-03T02:03:03.574Z,3.42
2022-12-03T02:05:13.556Z,3.45
2022-12-03T02:07:20.684Z,3.49
2022-12-03T02:09:25.414Z,3.56
2022-12-03T02:11:38.003Z,3.60
2022-12-03T02:13:43.209Z,3.60
2022-12-03T02:15:51.113Z,3.61
2022-12-03T02:17:59.227Z,3.59
2022-12-03T02:20:06.018Z,3.66
2022-12-03T02:22:19.415Z,3.71
2022-12-03T02:24:32.655Z,3.74
2022-12-03T02:26:40.308Z,3.73
2022-12-03T02:28:46.600Z,3.75
2022-12-03T02:30:51.939Z,3.75
2022-12-03T02:32:57.442Z,3.73
2022-12-03T02:35:02.270Z,3.70
2022-12-03T02:37:09.472Z,3.67
2022-12-03T02:39:14.330Z,3.65
2022-12-03T02:41:33.982Z,3.66
2022-12-03T02:43:41.698Z,3.59
2022-12-03T02:45:49.160Z,3.59
2022-12-03T02:47:57.666Z,3.61
2022-12-03T02:50:03.524Z,3.63
2022-12-03T02:53:56.019Z,3.69
2022-12-03T02:54:51.738Z,3.64
2022-12-03T02:57:26.683Z,3.69
2022-12-03T02:59:34.457Z,3.70
2022-12-03T03:01:39.598Z,3.73
2022-12-03T03:03:44.606Z,3.72
2022-12-03T03:05:53.095Z,3.64
2022-12-03T03:08:00.252Z,3.67
2022-12-03T03:10:08.167Z,3.63
2022-12-03T03:12:16.002Z,3.62
2022-12-03T03:14:48.924Z,3.55
2022-12-03T03:16:58.547Z,3.56
2022-12-03T03:19:03.985Z,3.55
2022-12-03T03:21:09.403Z,3.58
2022-12-03T03:23:21.268Z,3.60
2022-12-03T03:25:55.502Z,3.56
2022-12-03T03:28:36.373Z,3.50
2022-12-03T03:31:13.159Z,3.54
2022-12-03T03:33:31.639Z,3.50
2022-12-03T03:35:37.462Z,3.49
2022-12-03T03:38:12.396Z,3.47
2022-12-03T03:40:25.829Z,3.43
2022-12-03T03:42:45.076Z,3.38
2022-12-03T03:46:01.138Z,3.35
2022-12-03T03:48:49.563Z,3.32
2022-12-03T03:52:23.016Z,3.24
2022-12-03T04:00:59.226Z,3.03
2022-12-03T04:03:24.365Z,3.03
2022-12-03T04:06:19.322Z,2.99
2022-12-03T04:09:07.199Z,2.99
2022-12-03T04:12:27.046Z,2.91
2022-12-03T04:14:36.325Z,2.91
2022-12-03T04:17:39.368Z,2.94
2022-12-03T04:20:05.708Z,2.93
2022-12-03T04:25:33.749Z,3.01
2022-12-03T04:28:31.864Z,2.93
2022-12-03T04:31:02.909Z,2.95
2022-12-03T04:39:11.779Z,3.20
2022-12-03T04:41:27.446Z,3.25
2022-12-03T04:44:31.209Z,3.26
2022-12-03T05:06:53.607Z,3.11
2022-12-03T05:09:03.183Z,3.17
2022-12-03T05:11:15.215Z,3.20
2022-12-03T05:13:26.278Z,3.18
2022-12-03T05:16:00.955Z,3.16
2022-12-03T05:18:13.091Z,3.15
2022-12-03T05:20:31.239Z,3.21
2022-12-03T05:22:38.818Z,3.20
2022-12-03T05:24:43.593Z,3.20
2022-12-03T05:26:48.546Z,3.19
2022-12-03T05:28:53.584Z,3.20
2022-12-03T05:30:58.466Z,3.20
2022-12-03T05:33:03.330Z,3.22
2022-12-03T05:35:09.156Z,3.22
2022-12-03T05:37:14.164Z,3.22
2022-12-03T05:39:21.545Z,3.30
2022-12-03T05:41:38.841Z,3.30
2022-12-03T05:43:43.615Z,3.26
2022-12-03T05:45:48.724Z,3.30
2022-12-03T05:47:54.406Z,3.30
2022-12-03T05:49:59.174Z,3.35
2022-12-03T05:52:03.950Z,3.34
2022-12-03T05:54:08.960Z,3.37
2022-12-03T05:56:16.353Z,3.32
2022-12-03T05:58:21.134Z,3.30
2022-12-03T06:00:28.343Z,3.31
2022-12-03T06:02:33.216Z,3.27
2022-12-03T06:04:38.221Z,3.24
2022-12-03T06:06:42.968Z,3.27
2022-12-03T06:08:47.935Z,3.30
2022-12-03T06:10:52.719Z,3.26
2022-12-03T06:13:01.002Z,3.21
2022-12-03T06:15:06.222Z,3.18
2022-12-03T06:17:10.818Z,3.14
2022-12-03T06:19:15.699Z,3.09
2022-12-03T06:21:20.532Z,3.16
2022-12-03T06:23:25.293Z,3.18
2022-12-03T06:25:30.225Z,3.22
2022-12-03T06:27:35.012Z,3.24
2022-12-03T06:29:42.421Z,3.25
2022-12-03T06:31:47.381Z,3.25
2022-12-03T06:33:52.296Z,3.23
2022-12-03T06:35:57.035Z,3.26
2022-12-03T06:38:01.851Z,3.28
2022-12-03T06:40:07.385Z,3.29
2022-12-03T06:42:12.168Z,3.26
2022-12-03T06:44:16.972Z,3.28
2022-12-03T06:46:24.469Z,3.33
2022-12-03T06:48:29.476Z,3.37
2022-12-03T06:50:34.678Z,3.37
2022-12-03T06:52:39.475Z,3.39
2022-12-03T06:54:44.505Z,3.38
2022-12-03T06:56:49.271Z,3.35
2022-12-03T06:58:56.883Z,3.36
2022-12-03T07:01:01.669Z,3.44
2022-12-03T07:03:09.099Z,3.47
2022-12-03T07:05:14.009Z,3.50
2022-12-03T07:07:18.889Z,3.52
2022-12-03T07:09:23.702Z,3.52
2022-12-03T07:11:40.072Z,3.50
2022-12-03T07:13:44.931Z,3.45
2022-12-03T07:15:49.808Z,3.46
2022-12-03T07:17:57.204Z,3.39
2022-12-03T07:20:04.866Z,3.35
2022-12-03T07:22:10.414Z,3.36
2022-12-03T07:24:15.255Z,3.40
2022-12-03T07:26:20.049Z,3.39
2022-12-03T07:28:24.856Z,3.44
2022-12-03T07:30:29.608Z,3.43
2022-12-03T07:32:35.101Z,3.43
2022-12-03T07:34:39.887Z,3.52
2022-12-03T07:36:47.327Z,3.58
2022-12-03T07:38:52.887Z,3.56
2022-12-03T07:40:57.737Z,3.50
2022-12-03T07:43:02.506Z,3.50
2022-12-03T07:45:08.472Z,3.47
2022-12-03T07:47:13.321Z,3.44
2022-12-03T07:49:18.132Z,3.37
2022-12-03T07:51:26.190Z,3.36
2022-12-03T07:53:38.689Z,3.40
2022-12-03T07:55:43.465Z,3.49
2022-12-03T07:57:51.050Z,3.53
2022-12-03T07:59:55.813Z,3.54
2022-12-03T08:02:00.666Z,3.57
2022-12-03T08:04:05.477Z,3.60
2022-12-03T08:06:10.652Z,3.62
2022-12-03T08:08:15.437Z,3.64
2022-12-03T08:10:22.998Z,3.65
2022-12-03T08:12:40.314Z,3.68
2022-12-03T08:14:45.793Z,3.69
2022-12-03T08:16:50.927Z,3.70
2022-12-03T08:18:57.662Z,3.69
2022-12-03T08:21:02.692Z,3.70
2022-12-03T08:23:15.305Z,3.73
2022-12-03T08:25:25.386Z,3.68
2022-12-03T08:27:30.201Z,3.70
2022-12-03T08:29:35.009Z,3.66
2022-12-03T08:31:39.981Z,3.63
2022-12-03T08:33:44.850Z,3.63
2022-12-03T08:35:52.806Z,3.63
2022-12-03T08:38:02.035Z,3.64
2022-12-03T08:40:30.072Z,3.63
2022-12-03T08:42:43.213Z,3.59
2022-12-03T08:44:48.115Z,3.53
2022-12-03T08:46:57.135Z,3.56
2022-12-03T08:49:01.976Z,3.57
2022-12-03T08:51:14.057Z,3.53
2022-12-03T08:53:28.726Z,3.44
2022-12-03T08:55:39.306Z,3.47
2022-12-03T08:57:44.515Z,3.40
2022-12-03T08:59:49.672Z,3.46
2022-12-03T09:01:56.223Z,3.43
2022-12-03T09:04:19.538Z,3.43
2022-12-03T09:06:24.765Z,3.45
2022-12-03T09:08:29.584Z,3.47
2022-12-03T09:10:37.033Z,3.47
2022-12-03T09:12:41.788Z,3.55
2022-12-03T09:14:46.682Z,3.61
2022-12-03T09:16:56.129Z,3.67
2022-12-03T09:19:01.243Z,3.67
2022-12-03T09:21:06.015Z,3.74
2022-12-03T09:23:10.876Z,3.72
2022-12-03T09:25:16.110Z,3.69
2022-12-03T09:27:23.673Z,3.68
2022-12-03T09:29:28.500Z,3.74
2022-12-03T09:31:34.365Z,3.68
2022-12-03T09:33:39.177Z,3.75
2022-12-03T09:35:44.015Z,3.72
2022-12-03T09:37:49.120Z,3.81
2022-12-03T09:39:53.957Z,3.81
2022-12-03T09:41:58.971Z,3.80
2022-12-03T09:44:08.512Z,3.83
2022-12-03T09:46:16.360Z,3.79
2022-12-03T09:48:23.508Z,3.78
2022-12-03T09:50:29.850Z,3.77
2022-12-03T09:52:36.393Z,3.74
2022-12-03T09:54:46.843Z,3.80
2022-12-03T09:56:52.360Z,3.82
2022-12-03T09:58:57.293Z,3.86
2022-12-03T10:01:04.809Z,3.98
2022-12-03T10:03:10.677Z,4.05
2022-12-03T10:05:15.827Z,4.05
2022-12-03T10:07:20.718Z,4.02
2022-12-03T10:09:28.472Z,4.05
2022-12-03T10:11:33.823Z,4.07
2022-12-03T10:13:38.897Z,4.07
2022-12-03T10:15:43.737Z,4.07
2022-12-03T10:17:54.605Z,4.00
2022-12-03T10:19:59.435Z,3.93
2022-12-03T10:22:04.831Z,3.91
2022-12-03T10:24:26.036Z,3.93
2022-12-03T10:26:42.499Z,3.94
2022-12-03T10:28:50.298Z,3.90
2022-12-03T10:30:57.529Z,3.94
2022-12-03T10:33:19.049Z,3.93
2022-12-03T10:35:26.721Z,3.97
2022-12-03T10:37:31.523Z,4.02
2022-12-03T10:39:56.222Z,4.16
2022-12-03T10:42:17.630Z,4.20
2022-12-03T10:44:25.697Z,4.21
2022-12-03T10:46:30.724Z,4.22
2022-12-03T10:48:38.404Z,4.21
2022-12-03T10:50:54.004Z,4.25
2022-12-03T10:52:59.010Z,4.26
2022-12-03T10:55:03.862Z,4.27
2022-12-03T10:57:08.633Z,4.33
2022-12-03T10:59:19.040Z,4.32
2022-12-03T11:01:26.453Z,4.16
2022-12-03T11:03:33.269Z,4.14
2022-12-03T11:05:40.795Z,4.13
2022-12-03T11:07:46.404Z,4.08
2022-12-03T11:09:54.728Z,4.07
2022-12-03T11:12:06.977Z,4.15
2022-12-03T11:14:18.087Z,4.14
2022-12-03T11:17:13.990Z,4.10
2022-12-03T11:19:21.138Z,3.99
2022-12-03T11:21:28.513Z,4.04
2022-12-03T11:24:03.131Z,4.05
2022-12-03T11:26:08.115Z,4.04
2022-12-03T11:28:37.866Z,4.04
2022-12-03T11:31:02.439Z,4.11
2022-12-03T11:33:07.838Z,4.16
2022-12-03T11:35:15.042Z,4.15
2022-12-03T11:37:31.781Z,4.15
2022-12-03T11:40:07.991Z,4.19
2022-12-03T11:42:41.039Z,4.21
2022-12-03T11:44:45.962Z,4.18
2022-12-03T11:46:51.089Z,4.23
2022-12-03T11:48:57.155Z,4.26
2022-12-03T11:51:02.318Z,4.31
2022-12-03T11:53:15.591Z,4.39
2022-12-03T11:55:26.478Z,4.41
2022-12-03T11:57:35.425Z,4.50
2022-12-03T11:59:59.893Z,4.50
2022-12-03T12:02:22.475Z,4.45
2022-12-03T12:04:33.711Z,4.43
2022-12-03T12:06:43.963Z,4.47
2022-12-03T12:09:03.886Z,4.43
2022-12-03T12:11:19.754Z,4.51
2022-12-03T12:13:50.864Z,4.54
2022-12-03T12:15:55.796Z,4.48
2022-12-03T12:18:20.628Z,4.47
2022-12-03T12:20:28.115Z,4.48
2022-12-03T12:22:34.189Z,4.51
2022-12-03T12:24:54.132Z,4.49
2022-12-03T12:26:59.712Z,4.49
2022-12-03T12:29:04.638Z,4.51
2022-12-03T12:31:15.043Z,4.53
2022-12-03T12:33:26.330Z,4.58
2022-12-03T12:35:33.011Z,4.54
2022-12-03T12:37:47.629Z,4.55
2022-12-03T12:39:59.535Z,4.46
2022-12-03T12:42:05.662Z,4.39
2022-12-03T12:44:13.364Z,4.38
2022-12-03T12:46:46.776Z,4.37
2022-12-03T12:48:46.667Z,4.40
2022-12-03T12:50:54.454Z,4.37
2022-12-03T12:53:05.069Z,4.22
2022-12-03T12:55:14.892Z,4.27
2022-12-03T12:57:24.982Z,4.33
2022-12-03T12:59:31.642Z,4.32
2022-12-03T13:01:37.903Z,4.40
2022-12-03T13:03:43.117Z,4.42
2022-12-03T13:05:49.816Z,4.42
2022-12-03T13:07:56.621Z,4.49
2022-12-03T13:10:03.381Z,4.56
2022-12-03T13:12:22.697Z,4.59
2022-12-03T13:14:29.143Z,4.56
2022-12-03T13:16:35.743Z,4.47
2022-12-03T13:18:48.146Z,4.46
2022-12-03T13:20:53.375Z,4.42
2022-12-03T13:22:58.124Z,4.27
2022-12-03T13:25:38.240Z,4.15
2022-12-03T13:27:51.070Z,4.12
2022-12-03T13:29:58.806Z,4.01
2022-12-03T13:32:05.695Z,3.99
2022-12-03T13:34:17.140Z,3.96
2022-12-03T13:36:23.715Z,3.91
2022-12-03T13:38:28.495Z,3.95
2022-12-03T13:40:35.512Z,3.88
2022-12-03T13:42:42.278Z,3.88
2022-12-03T13:44:52.072Z,3.86
2022-12-03T13:46:56.848Z,3.80
2022-12-03T13:49:02.271Z,3.79
2022-12-03T13:51:22.475Z,3.93
2022-12-03T13:53:30.574Z,3.91
2022-12-03T13:55:35.372Z,3.82
2022-12-03T13:57:40.400Z,3.82
2022-12-03T13:59:45.153Z,3.78
2022-12-03T14:01:52.690Z,3.76
2022-12-03T14:03:57.790Z,3.75
2022-12-03T14:06:02.540Z,3.76
2022-12-03T14:08:08.143Z,3.74
2022-12-03T14:10:17.037Z,3.69
2022-12-03T14:12:33.983Z,3.71
2022-12-03T14:14:39.015Z,3.71
2022-12-03T14:16:45.199Z,3.78
2022-12-03T14:18:52.675Z,3.78
2022-12-03T14:20:57.635Z,3.81
2022-12-03T14:23:02.466Z,3.89
2022-12-03T14:25:09.121Z,3.90
2022-12-03T14:27:13.982Z,3.81
2022-12-03T14:29:18.872Z,3.83
2022-12-03T14:31:23.712Z,3.89
2022-12-03T14:33:28.640Z,3.86
2022-12-03T14:35:36.091Z,3.65
2022-12-03T14:37:40.916Z,3.61
2022-12-03T14:39:45.781Z,3.57
2022-12-03T14:42:03.062Z,3.58
2022-12-03T14:44:08.030Z,3.62
2022-12-03T14:46:12.844Z,3.60
2022-12-03T14:48:17.828Z,3.53
2022-12-03T14:50:22.583Z,3.49
2022-12-03T14:52:30.057Z,3.46
2022-12-03T14:54:35.256Z,3.49
2022-12-03T14:56:40.026Z,3.50
2022-12-03T14:58:44.751Z,3.46
2022-12-03T15:00:49.723Z,3.48
2022-12-03T15:02:57.922Z,3.44
2022-12-03T15:05:02.867Z,3.42
2022-12-03T15:07:07.773Z,3.39
2022-12-03T15:09:15.336Z,3.43
2022-12-03T15:11:20.470Z,3.49
2022-12-03T15:13:25.376Z,3.55
2022-12-03T15:15:30.387Z,3.53
2022-12-03T15:17:35.360Z,3.56
2022-12-03T15:19:40.203Z,3.57
2022-12-03T15:21:45.006Z,3.54
2022-12-03T15:23:51.431Z,3.45
2022-12-03T15:25:58.915Z,3.44
2022-12-03T15:28:05.358Z,3.34
2022-12-03T15:30:11.734Z,3.38
2022-12-03T15:32:17.854Z,3.35
2022-12-03T15:34:23.397Z,3.32
2022-12-03T15:36:28.288Z,3.22
2022-12-03T15:38:33.228Z,3.26
2022-12-03T15:40:38.236Z,3.31
2022-12-03T15:42:47.987Z,3.34
2022-12-03T15:44:52.885Z,3.42
2022-12-03T15:46:57.686Z,3.52
2022-12-03T15:49:02.716Z,3.53
2022-12-03T15:51:07.952Z,3.56
2022-12-03T15:53:12.472Z,3.53
2022-12-03T15:55:19.122Z,3.50
2022-12-03T15:57:24.013Z,3.42
2022-12-03T15:59:31.392Z,3.42
2022-12-03T16:01:36.322Z,3.46
2022-12-03T16:03:41.467Z,3.54
2022-12-03T16:05:46.129Z,3.51
2022-12-03T16:07:50.981Z,3.44
2022-12-03T16:09:56.238Z,3.45
2022-12-03T16:12:01.503Z,3.30
2022-12-03T16:14:06.378Z,3.18
2022-12-03T16:16:13.930Z,3.18
2022-12-03T16:18:20.652Z,3.27
2022-12-03T16:20:25.530Z,3.29
2022-12-03T16:22:30.290Z,3.43
2022-12-03T16:24:35.102Z,3.45
2022-12-03T16:26:39.983Z,3.48
2022-12-03T16:28:45.122Z,3.53
2022-12-03T16:30:49.863Z,3.55
2022-12-03T16:32:58.382Z,3.52
2022-12-03T16:35:03.149Z,3.43
2022-12-03T16:37:08.427Z,3.43
2022-12-03T16:39:16.457Z,3.37
2022-12-03T16:41:22.504Z,3.31
2022-12-03T16:43:27.492Z,3.32
2022-12-03T16:45:51.622Z,3.31
2022-12-03T16:47:59.055Z,3.27
2022-12-03T16:50:03.908Z,3.23
2022-12-03T16:52:08.663Z,3.25
2022-12-03T16:54:16.877Z,3.17
2022-12-03T16:56:22.567Z,3.17
2022-12-03T16:58:32.602Z,3.11
2022-12-03T17:00:37.578Z,3.14
2022-12-03T17:02:42.482Z,3.17
2022-12-03T17:04:49.895Z,3.18
2022-12-03T17:06:55.012Z,3.16
2022-12-03T17:08:59.784Z,3.14
2022-12-03T17:11:08.218Z,3.09
2022-12-03T17:13:13.045Z,3.09
2022-12-03T17:15:18.125Z,3.09
2022-12-03T17:17:25.841Z,3.10
2022-12-03T17:19:30.655Z,3.08
2022-12-03T17:21:38.196Z,3.13
2022-12-03T17:23:44.801Z,3.16
2022-12-03T17:25:51.601Z,3.19
2022-12-03T17:27:56.597Z,3.18
2022-12-03T17:30:01.535Z,3.22
2022-12-03T17:32:06.430Z,3.24
2022-12-03T17:34:11.493Z,3.22
2022-12-03T17:36:16.363Z,3.27
2022-12-03T17:38:23.989Z,3.25
2022-12-03T17:40:28.951Z,3.23
2022-12-03T17:42:33.738Z,3.28
2022-12-03T17:44:38.551Z,3.23
2022-12-03T17:46:43.382Z,3.26
2022-12-03T17:48:50.719Z,3.26
2022-12-03T17:50:55.534Z,3.27
2022-12-03T17:53:00.337Z,3.30
2022-12-03T17:55:16.302Z,3.21
2022-12-03T17:57:26.310Z,3.17
2022-12-03T17:59:31.051Z,3.16
2022-12-03T18:01:35.979Z,3.11
2022-12-03T18:03:41.152Z,3.10
2022-12-03T18:05:46.254Z,3.12
2022-12-03T18:07:51.559Z,3.11
2022-12-03T18:09:56.883Z,3.21
2022-12-03T18:12:04.773Z,3.29
2022-12-03T18:14:09.656Z,3.31
2022-12-03T18:16:17.046Z,3.39
2022-12-03T18:18:21.859Z,3.39
2022-12-03T18:20:26.671Z,3.30
2022-12-03T18:22:31.960Z,3.22
2022-12-03T18:24:36.505Z,3.10
2022-12-03T18:26:42.784Z,3.07
2022-12-03T18:28:52.744Z,3.06
2022-12-03T18:30:57.650Z,3.06
2022-12-03T18:33:02.672Z,3.13
2022-12-03T18:35:08.275Z,3.12
2022-12-03T18:37:14.074Z,3.18
2022-12-03T18:39:27.426Z,3.20
2022-12-03T18:41:32.493Z,3.23
2022-12-03T18:43:37.351Z,3.18
2022-12-03T18:45:44.927Z,3.21
2022-12-03T18:47:49.878Z,3.18
2022-12-03T18:49:56.821Z,3.28
2022-12-03T18:52:02.050Z,3.24
2022-12-03T18:54:07.433Z,3.29
2022-12-03T18:56:13.146Z,3.32
2022-12-03T18:58:17.889Z,3.22
2022-12-03T19:00:23.363Z,3.06
2022-12-03T19:03:01.108Z,3.18
2022-12-03T19:04:56.084Z,3.27
2022-12-03T19:07:01.268Z,3.34
2022-12-03T19:09:06.706Z,3.34
2022-12-03T19:11:12.163Z,3.39
2022-12-03T19:13:17.083Z,3.41
2022-12-03T19:15:22.992Z,3.45
2022-12-03T19:17:30.622Z,3.44
2022-12-03T19:19:36.358Z,3.44
2022-12-03T19:21:41.154Z,3.41
2022-12-03T19:24:15.942Z,3.39
2022-12-03T19:26:13.609Z,3.37
2022-12-03T19:28:18.358Z,3.38
2022-12-03T19:30:23.424Z,3.33
2022-12-03T19:32:30.902Z,3.33
2022-12-03T19:34:35.907Z,3.30
2022-12-03T19:36:40.684Z,3.39
2022-12-03T19:38:45.771Z,3.39
2022-12-03T19:40:50.543Z,3.37
2022-12-03T19:42:55.372Z,3.42
2022-12-03T19:45:00.176Z,3.42
2022-12-03T19:47:05.094Z,3.33
2022-12-03T19:49:13.104Z,3.36
2022-12-03T19:51:35.380Z,3.39
2022-12-03T19:53:41.586Z,3.30
2022-12-03T19:55:46.533Z,3.32
2022-12-03T19:57:51.568Z,3.31
2022-12-03T19:59:56.673Z,3.31
2022-12-03T20:02:01.973Z,3.36
2022-12-03T20:04:07.322Z,3.26
2022-12-03T20:06:15.042Z,3.25
2022-12-03T20:08:19.918Z,3.27
2022-12-03T20:10:26.773Z,3.28
2022-12-03T20:12:34.456Z,3.29
2022-12-03T20:14:39.319Z,3.28
2022-12-03T20:16:46.753Z,3.26
2022-12-03T20:18:52.534Z,3.35
2022-12-03T20:20:59.718Z,3.39
2022-12-03T20:23:07.593Z,3.37
2022-12-03T20:25:13.199Z,3.41
2022-12-03T20:27:22.783Z,3.47
2022-12-03T20:29:28.017Z,3.56
2022-12-03T20:31:34.683Z,3.61
2022-12-03T20:33:40.003Z,3.62
2022-12-03T20:35:44.579Z,3.64
2022-12-03T20:37:49.370Z,3.63
2022-12-03T20:39:56.974Z,3.65
2022-12-03T20:42:02.079Z,3.62
2022-12-03T20:44:07.928Z,3.58
2022-12-03T20:46:14.162Z,3.55
2022-12-03T20:48:19.584Z,3.59
2022-12-03T20:50:24.589Z,3.61
2022-12-03T20:52:29.371Z,3.68
2022-12-03T20:54:34.489Z,3.70
2022-12-03T20:56:42.276Z,3.75
2022-12-03T20:58:47.482Z,3.65
2022-12-03T21:00:52.147Z,3.55
2022-12-03T21:02:56.990Z,3.43
2022-12-03T21:05:01.962Z,3.46
2022-12-03T21:07:07.327Z,3.50
2022-12-03T21:09:13.280Z,3.52
2022-12-03T21:11:20.552Z,3.58
2022-12-03T21:13:30.993Z,3.62
2022-12-03T21:15:37.342Z,3.62
2022-12-03T21:17:42.238Z,3.59
2022-12-03T21:19:47.410Z,3.54
2022-12-03T21:21:52.072Z,3.49
2022-12-03T21:23:57.254Z,3.51
2022-12-03T21:26:07.132Z,3.53
2022-12-03T21:28:12.365Z,3.55
2022-12-03T21:30:19.779Z,3.58
2022-12-03T21:32:24.625Z,3.54
2022-12-03T21:34:35.895Z,3.53
2022-12-03T21:36:41.076Z,3.57
2022-12-03T21:38:46.922Z,3.59
2022-12-03T21:40:54.115Z,3.57
2022-12-03T21:42:58.908Z,3.59
2022-12-03T21:45:03.773Z,3.58
2022-12-03T21:47:14.251Z,3.60
2022-12-03T21:49:20.371Z,3.57
2022-12-03T21:51:25.205Z,3.44
2022-12-03T21:53:30.856Z,3.40
2022-12-03T21:55:35.690Z,3.38
2022-12-03T21:57:40.895Z,3.43
2022-12-03T21:59:45.664Z,3.50
2022-12-03T22:01:50.643Z,3.54
2022-12-03T22:03:58.103Z,3.58
2022-12-03T22:06:02.978Z,3.58
2022-12-03T22:08:08.537Z,3.55
2022-12-03T22:10:14.967Z,3.56
2022-12-03T22:12:19.801Z,3.58
2022-12-03T22:14:24.693Z,3.54
2022-12-03T22:16:29.516Z,3.49
2022-12-03T22:18:34.614Z,3.48
2022-12-03T22:20:44.602Z,3.52
2022-12-03T22:22:49.463Z,3.58
2022-12-03T22:28:11.730Z,3.70
2022-12-03T22:30:16.959Z,3.75
2022-12-03T22:32:21.514Z,3.74
2022-12-03T22:34:26.409Z,3.69
2022-12-03T22:36:34.251Z,3.64
2022-12-03T22:38:39.219Z,3.60
2022-12-03T22:40:43.989Z,3.56
2022-12-03T22:42:51.031Z,3.51
2022-12-03T22:44:56.041Z,3.51
2022-12-03T22:47:00.843Z,3.54
2022-12-03T22:49:07.652Z,3.55
2022-12-03T22:51:15.256Z,3.45
2022-12-03T22:53:23.278Z,3.50
2022-12-03T22:55:28.078Z,3.51
2022-12-03T22:57:33.993Z,3.52
2022-12-03T22:59:38.872Z,3.54
2022-12-03T23:01:44.648Z,3.56
2022-12-03T23:03:49.518Z,3.54
2022-12-03T23:05:57.522Z,3.53
2022-12-03T23:08:02.406Z,3.56
2022-12-03T23:10:11.461Z,3.56
2022-12-03T23:12:18.963Z,3.62
2022-12-03T23:14:23.731Z,3.66
2022-12-03T23:16:30.946Z,3.73
2022-12-03T23:18:35.978Z,3.72
2022-12-03T23:20:44.842Z,3.71
2022-12-03T23:22:49.923Z,3.73
2022-12-03T23:24:54.657Z,3.76
2022-12-03T23:27:02.092Z,3.76
2022-12-03T23:29:09.005Z,3.78
2022-12-03T23:31:19.220Z,3.77
2022-12-03T23:33:24.630Z,3.75
2022-12-03T23:35:29.137Z,3.73
2022-12-03T23:37:34.163Z,3.69
2022-12-03T23:39:39.069Z,3.69
2022-12-03T23:41:46.983Z,3.72
2022-12-03T23:43:57.549Z,3.69
2022-12-03T23:46:06.535Z,3.67
2022-12-03T23:48:11.561Z,3.70
2022-12-03T23:50:16.970Z,3.70
2022-12-03T23:52:21.791Z,3.70
2022-12-03T23:54:26.733Z,3.76
2022-12-03T23:56:33.090Z,3.78
2022-12-03T23:58:38.707Z,3.70
